Smokey Hill High School (Aurora), Colorado
Current Conditions -  °F | °C
As of 2:53 PM on Monday 20 Oct 2014 (Local Time) from KAPA Reporting Station
Few Clouds Few Clouds  
Wind Chill: 72°   Ceiling: Unl
Heat Index: 72°   Visibility: 10mi
Dew Point: 35°   Wind: 22mph
Humidity: 26%   Direction: 160°SSE
Pressure: 30.09"   Gusts: 29mph
Location:  39.6262°N, 104.8012°W
Report Text: KAPA 202053Z 16019G25KT 10SM FEW100 FEW140 22/02 A3009 RMK AO2 SLP141 TCU DSNT W-NW T02220017 56022
Loading
Personal Weather Stations






























Interactive Weather Map
Tropical Storm Tracking
New forecast layout! Learn more

10-Day Weather Forecast

Advertisements
Track Severe Weather on mobile